sensor_id;sensor_type;location;lat;lon;timestamp;pressure;altitude;pressure_sealevel;temperature;humidity
64933;BME280;51446;53.850;10.662;2023-02-18T00:00:07;101372.91;;;6.37;100.00
64933;BME280;51446;53.850;10.662;2023-02-18T00:02:33;101387.25;;;6.27;100.00
64933;BME280;51446;53.850;10.662;2023-02-18T00:04:58;101381.00;;;6.23;100.00
64933;BME280;51446;53.850;10.662;2023-02-18T00:07:23;101379.44;;;6.27;100.00
64933;BME280;51446;53.850;10.662;2023-02-18T00:09:49;101379.31;;;6.24;100.00
64933;BME280;51446;53.850;10.662;2023-02-18T00:12:14;101368.03;;;6.25;100.00
64933;BME280;51446;53.850;10.662;2023-02-18T00:14:39;101385.25;;;6.21;100.00
64933;BME280;51446;53.850;10.662;2023-02-18T00:17:04;101383.41;;;6.19;100.00
64933;BME280;51446;53.850;10.662;2023-02-18T00:19:30;101388.63;;;6.19;100.00
64933;BME280;51446;53.850;10.662;2023-02-18T00:21:55;101387.44;;;6.12;100.00
64933;BME280;51446;53.850;10.662;2023-02-18T00:24:20;101383.16;;;6.13;100.00
64933;BME280;51446;53.850;10.662;2023-02-18T00:26:49;101384.66;;;6.07;100.00
64933;BME280;51446;53.850;10.662;2023-02-18T00:29:15;101388.78;;;6.02;100.00
64933;BME280;51446;53.850;10.662;2023-02-18T00:31:41;101386.63;;;6.13;100.00
64933;BME280;51446;53.850;10.662;2023-02-18T00:34:06;101375.16;;;6.08;100.00
64933;BME280;51446;53.850;10.662;2023-02-18T00:36:32;101384.41;;;6.01;100.00
64933;BME280;51446;53.850;10.662;2023-02-18T00:38:59;101369.34;;;5.96;100.00
64933;BME280;51446;53.850;10.662;2023-02-18T00:41:27;101371.16;;;5.97;100.00
64933;BME280;51446;53.850;10.662;2023-02-18T00:43:53;101370.03;;;5.91;100.00
64933;BME280;51446;53.850;10.662;2023-02-18T00:46:19;101371.50;;;5.85;100.00
64933;BME280;51446;53.850;10.662;2023-02-18T00:48:45;101374.16;;;5.86;100.00
64933;BME280;51446;53.850;10.662;2023-02-18T00:51:11;101381.19;;;5.89;100.00
64933;BME280;51446;53.850;10.662;2023-02-18T00:53:36;101394.22;;;5.89;100.00
64933;BME280;51446;53.850;10.662;2023-02-18T00:56:02;101384.78;;;5.91;100.00
64933;BME280;51446;53.850;10.662;2023-02-18T00:58:27;101402.72;;;5.85;100.00
64933;BME280;51446;53.850;10.662;2023-02-18T01:00:54;101387.13;;;5.85;100.00
64933;BME280;51446;53.850;10.662;2023-02-18T01:03:19;101390.59;;;5.85;100.00
64933;BME280;51446;53.850;10.662;2023-02-18T01:05:46;101391.16;;;5.98;100.00
64933;BME280;51446;53.850;10.662;2023-02-18T01:08:11;101398.28;;;5.82;100.00
64933;BME280;51446;53.850;10.662;2023-02-18T01:10:41;101400.03;;;5.83;100.00
64933;BME280;51446;53.850;10.662;2023-02-18T01:13:07;101409.75;;;5.87;100.00
64933;BME280;51446;53.850;10.662;2023-02-18T01:15:32;101406.09;;;5.82;100.00
64933;BME280;51446;53.850;10.662;2023-02-18T01:17:58;101419.03;;;5.81;100.00
64933;BME280;51446;53.850;10.662;2023-02-18T01:20:23;101413.81;;;5.81;100.00
64933;BME280;51446;53.850;10.662;2023-02-18T01:22:49;101408.63;;;5.81;100.00
64933;BME280;51446;53.850;10.662;2023-02-18T01:25:14;101412.09;;;5.81;100.00
64933;BME280;51446;53.850;10.662;2023-02-18T01:27:40;101421.75;;;5.84;100.00
64933;BME280;51446;53.850;10.662;2023-02-18T01:30:07;101424.78;;;5.73;100.00
64933;BME280;51446;53.850;10.662;2023-02-18T01:32:32;101418.44;;;5.68;100.00
64933;BME280;51446;53.850;10.662;2023-02-18T01:35:03;101416.66;;;5.67;100.00
64933;BME280;51446;53.850;10.662;2023-02-18T01:37:28;101426.06;;;5.64;100.00
64933;BME280;51446;53.850;10.662;2023-02-18T01:39:53;101419.06;;;5.63;100.00
64933;BME280;51446;53.850;10.662;2023-02-18T01:42:21;101428.66;;;5.64;100.00
64933;BME280;51446;53.850;10.662;2023-02-18T01:44:47;101420.09;;;5.66;100.00
64933;BME280;51446;53.850;10.662;2023-02-18T01:47:14;101418.25;;;5.64;100.00
64933;BME280;51446;53.850;10.662;2023-02-18T01:49:40;101417.19;;;5.60;100.00
64933;BME280;51446;53.850;10.662;2023-02-18T01:52:08;101414.31;;;5.54;100.00
64933;BME280;51446;53.850;10.662;2023-02-18T01:54:39;101416.13;;;5.55;100.00
64933;BME280;51446;53.850;10.662;2023-02-18T01:59:36;101406.25;;;5.48;100.00
64933;BME280;51446;53.850;10.662;2023-02-18T02:02:03;101404.91;;;5.56;100.00
64933;BME280;51446;53.850;10.662;2023-02-18T02:04:28;101403.03;;;5.53;100.00
64933;BME280;51446;53.850;10.662;2023-02-18T02:06:54;101413.31;;;5.50;100.00
64933;BME280;51446;53.850;10.662;2023-02-18T02:09:21;101415.06;;;5.51;100.00
64933;BME280;51446;53.850;10.662;2023-02-18T02:14:36;101420.13;;;5.48;100.00
64933;BME280;51446;53.850;10.662;2023-02-18T02:17:06;101414.25;;;5.52;100.00
64933;BME280;51446;53.850;10.662;2023-02-18T02:28:49;101393.09;;;5.45;100.00
64933;BME280;51446;53.850;10.662;2023-02-18T02:31:48;101394.38;;;5.54;100.00
64933;BME280;51446;53.850;10.662;2023-02-18T02:37:38;101386.81;;;5.59;100.00
64933;BME280;51446;53.850;10.662;2023-02-18T02:43:06;101376.28;;;5.56;100.00
64933;BME280;51446;53.850;10.662;2023-02-18T02:48:48;101384.75;;;5.52;100.00
64933;BME280;51446;53.850;10.662;2023-02-18T02:51:20;101387.13;;;5.47;100.00
64933;BME280;51446;53.850;10.662;2023-02-18T02:53:49;101392.19;;;5.44;100.00
64933;BME280;51446;53.850;10.662;2023-02-18T02:56:17;101379.09;;;5.43;100.00
64933;BME280;51446;53.850;10.662;2023-02-18T02:58:44;101378.09;;;5.39;100.00
64933;BME280;51446;53.850;10.662;2023-02-18T03:04:18;101368.22;;;5.32;100.00
64933;BME280;51446;53.850;10.662;2023-02-18T03:06:53;101372.38;;;5.28;100.00
64933;BME280;51446;53.850;10.662;2023-02-18T03:10:02;101376.03;;;5.32;100.00
64933;BME280;51446;53.850;10.662;2023-02-18T03:13:01;101374.91;;;5.27;100.00
64933;BME280;51446;53.850;10.662;2023-02-18T03:15:54;101379.50;;;5.32;100.00
64933;BME280;51446;53.850;10.662;2023-02-18T03:18:33;101387.56;;;5.19;100.00
64933;BME280;51446;53.850;10.662;2023-02-18T03:21:10;101392.63;;;5.16;100.00
64933;BME280;51446;53.850;10.662;2023-02-18T03:23:52;101399.22;;;5.09;100.00
64933;BME280;51446;53.850;10.662;2023-02-18T03:26:20;101389.84;;;5.13;100.00
64933;BME280;51446;53.850;10.662;2023-02-18T03:28:50;101403.28;;;5.04;100.00
64933;BME280;51446;53.850;10.662;2023-02-18T03:31:19;101400.75;;;5.06;100.00
64933;BME280;51446;53.850;10.662;2023-02-18T03:33:53;101400.88;;;5.07;100.00
64933;BME280;51446;53.850;10.662;2023-02-18T03:36:20;101397.94;;;5.01;100.00
64933;BME280;51446;53.850;10.662;2023-02-18T03:38:55;101404.41;;;4.91;100.00
64933;BME280;51446;53.850;10.662;2023-02-18T03:41:23;101403.81;;;4.97;100.00
64933;BME280;51446;53.850;10.662;2023-02-18T03:43:52;101394.19;;;4.94;100.00
64933;BME280;51446;53.850;10.662;2023-02-18T03:46:18;101394.91;;;4.92;100.00
64933;BME280;51446;53.850;10.662;2023-02-18T03:48:43;101400.78;;;4.88;100.00
64933;BME280;51446;53.850;10.662;2023-02-18T03:51:09;101405.97;;;4.88;100.00
64933;BME280;51446;53.850;10.662;2023-02-18T03:53:35;101396.53;;;4.90;100.00
64933;BME280;51446;53.850;10.662;2023-02-18T03:56:00;101409.38;;;4.86;100.00
64933;BME280;51446;53.850;10.662;2023-02-18T03:58:25;101408.03;;;4.77;100.00
64933;BME280;51446;53.850;10.662;2023-02-18T04:00:51;101403.81;;;4.79;100.00
64933;BME280;51446;53.850;10.662;2023-02-18T04:03:16;101399.13;;;4.90;100.00
64933;BME280;51446;53.850;10.662;2023-02-18T04:05:41;101389.78;;;4.93;100.00
64933;BME280;51446;53.850;10.662;2023-02-18T04:08:06;101393.66;;;5.01;100.00
64933;BME280;51446;53.850;10.662;2023-02-18T04:10:32;101384.22;;;5.03;100.00
64933;BME280;51446;53.850;10.662;2023-02-18T04:12:57;101377.53;;;5.09;100.00
64933;BME280;51446;53.850;10.662;2023-02-18T04:15:22;101376.25;;;5.18;100.00
64933;BME280;51446;53.850;10.662;2023-02-18T04:17:47;101383.16;;;5.18;100.00
64933;BME280;51446;53.850;10.662;2023-02-18T04:20:13;101380.50;;;5.16;100.00
64933;BME280;51446;53.850;10.662;2023-02-18T04:22:38;101349.91;;;5.11;100.00
64933;BME280;51446;53.850;10.662;2023-02-18T04:25:04;101375.44;;;5.19;100.00
64933;BME280;51446;53.850;10.662;2023-02-18T04:27:29;101368.75;;;5.25;100.00
64933;BME280;51446;53.850;10.662;2023-02-18T04:29:55;101357.69;;;5.29;100.00
64933;BME280;51446;53.850;10.662;2023-02-18T04:32:20;101357.69;;;5.29;100.00
64933;BME280;51446;53.850;10.662;2023-02-18T04:34:45;101348.28;;;5.32;100.00
64933;BME280;51446;53.850;10.662;2023-02-18T04:37:10;101346.56;;;5.33;100.00
64933;BME280;51446;53.850;10.662;2023-02-18T04:39:36;101349.09;;;5.31;100.00
64933;BME280;51446;53.850;10.662;2023-02-18T04:42:01;101336.09;;;5.31;100.00
64933;BME280;51446;53.850;10.662;2023-02-18T04:44:26;101336.41;;;5.37;100.00
64933;BME280;51446;53.850;10.662;2023-02-18T04:46:51;101342.22;;;5.51;100.00
64933;BME280;51446;53.850;10.662;2023-02-18T04:49:17;101331.69;;;5.48;100.00
64933;BME280;51446;53.850;10.662;2023-02-18T04:51:42;101322.94;;;5.46;100.00
64933;BME280;51446;53.850;10.662;2023-02-18T04:54:07;101322.94;;;5.46;100.00
64933;BME280;51446;53.850;10.662;2023-02-18T04:56:33;101337.56;;;5.44;100.00
64933;BME280;51446;53.850;10.662;2023-02-18T04:58:58;101346.69;;;5.54;100.00
64933;BME280;51446;53.850;10.662;2023-02-18T05:01:23;101341.63;;;5.57;100.00
64933;BME280;51446;53.850;10.662;2023-02-18T05:03:48;101328.47;;;5.54;100.00
64933;BME280;51446;53.850;10.662;2023-02-18T05:06:14;101339.16;;;5.60;100.00
64933;BME280;51446;53.850;10.662;2023-02-18T05:08:39;101330.25;;;5.55;100.00
64933;BME280;51446;53.850;10.662;2023-02-18T05:11:06;101315.53;;;5.55;100.00
64933;BME280;51446;53.850;10.662;2023-02-18T05:13:31;101328.88;;;5.44;100.00
64933;BME280;51446;53.850;10.662;2023-02-18T05:15:56;101326.06;;;5.39;100.00
64933;BME280;51446;53.850;10.662;2023-02-18T05:18:22;101322.50;;;5.37;100.00
64933;BME280;51446;53.850;10.662;2023-02-18T05:20:47;101334.63;;;5.36;100.00
64933;BME280;51446;53.850;10.662;2023-02-18T05:23:12;101345.75;;;5.34;100.00
64933;BME280;51446;53.850;10.662;2023-02-18T05:25:38;101331.69;;;5.29;100.00
64933;BME280;51446;53.850;10.662;2023-02-18T05:28:04;101337.56;;;5.25;100.00
64933;BME280;51446;53.850;10.662;2023-02-18T05:30:29;101329.63;;;5.21;100.00
64933;BME280;51446;53.850;10.662;2023-02-18T05:32:54;101328.56;;;5.18;100.00
64933;BME280;51446;53.850;10.662;2023-02-18T05:35:19;101331.09;;;5.16;100.00
64933;BME280;51446;53.850;10.662;2023-02-18T05:37:44;101330.22;;;5.16;100.00
64933;BME280;51446;53.850;10.662;2023-02-18T05:40:10;101322.09;;;5.10;100.00
64933;BME280;51446;53.850;10.662;2023-02-18T05:42:36;101323.22;;;5.15;100.00
64933;BME280;51446;53.850;10.662;2023-02-18T05:45:01;101319.75;;;5.14;100.00
64933;BME280;51446;53.850;10.662;2023-02-18T05:47:27;101329.47;;;5.00;100.00
64933;BME280;51446;53.850;10.662;2023-02-18T05:49:52;101322.63;;;5.02;100.00
64933;BME280;51446;53.850;10.662;2023-02-18T05:52:19;101331.56;;;5.08;100.00
64933;BME280;51446;53.850;10.662;2023-02-18T05:54:46;101316.97;;;5.11;100.00
64933;BME280;51446;53.850;10.662;2023-02-18T05:57:12;101313.63;;;5.14;100.00
64933;BME280;51446;53.850;10.662;2023-02-18T05:59:38;101312.00;;;5.16;100.00
64933;BME280;51446;53.850;10.662;2023-02-18T06:02:03;101308.31;;;5.11;100.00
64933;BME280;51446;53.850;10.662;2023-02-18T06:04:29;101307.28;;;5.07;100.00
64933;BME280;51446;53.850;10.662;2023-02-18T06:06:54;101305.78;;;5.12;100.00
64933;BME280;51446;53.850;10.662;2023-02-18T06:09:19;101298.94;;;5.14;100.00
64933;BME280;51446;53.850;10.662;2023-02-18T06:11:44;101303.75;;;5.25;100.00
64933;BME280;51446;53.850;10.662;2023-02-18T06:14:10;101306.09;;;5.20;100.00
64933;BME280;51446;53.850;10.662;2023-02-18T06:16:35;101309.09;;;5.28;100.00
64933;BME280;51446;53.850;10.662;2023-02-18T06:19:00;101304.75;;;5.28;100.00
64933;BME280;51446;53.850;10.662;2023-02-18T06:21:26;101301.97;;;5.24;100.00
64933;BME280;51446;53.850;10.662;2023-02-18T06:23:51;101302.69;;;5.21;100.00
64933;BME280;51446;53.850;10.662;2023-02-18T06:26:16;101306.34;;;5.25;100.00
64933;BME280;51446;53.850;10.662;2023-02-18T06:28:42;101306.34;;;5.25;100.00
64933;BME280;51446;53.850;10.662;2023-02-18T06:31:07;101301.81;;;5.20;100.00
64933;BME280;51446;53.850;10.662;2023-02-18T06:33:32;101295.63;;;5.18;100.00
64933;BME280;51446;53.850;10.662;2023-02-18T06:36:00;101297.44;;;5.19;100.00
64933;BME280;51446;53.850;10.662;2023-02-18T06:38:25;101290.38;;;5.17;100.00
64933;BME280;51446;53.850;10.662;2023-02-18T06:40:51;101275.09;;;5.23;100.00
64933;BME280;51446;53.850;10.662;2023-02-18T06:43:17;101273.16;;;5.19;100.00
64933;BME280;51446;53.850;10.662;2023-02-18T06:45:42;101280.13;;;5.20;100.00
64933;BME280;51446;53.850;10.662;2023-02-18T06:48:07;101268.09;;;5.22;100.00
64933;BME280;51446;53.850;10.662;2023-02-18T06:50:33;101270.34;;;5.14;100.00
64933;BME280;51446;53.850;10.662;2023-02-18T06:52:58;101268.84;;;5.19;100.00
64933;BME280;51446;53.850;10.662;2023-02-18T06:55:24;101266.94;;;5.35;100.00
64933;BME280;51446;53.850;10.662;2023-02-18T06:57:49;101264.69;;;5.23;100.00
64933;BME280;51446;53.850;10.662;2023-02-18T07:00:15;101261.09;;;5.21;100.00
64933;BME280;51446;53.850;10.662;2023-02-18T07:02:40;101256.34;;;5.30;100.00
64933;BME280;51446;53.850;10.662;2023-02-18T07:05:05;101254.41;;;5.26;100.00
64933;BME280;51446;53.850;10.662;2023-02-18T07:07:31;101250.91;;;5.26;100.00
64933;BME280;51446;53.850;10.662;2023-02-18T07:09:56;101250.69;;;5.21;100.00
64933;BME280;51446;53.850;10.662;2023-02-18T07:12:21;101250.16;;;5.28;100.00
64933;BME280;51446;53.850;10.662;2023-02-18T07:14:47;101247.41;;;5.25;100.00
64933;BME280;51446;53.850;10.662;2023-02-18T07:17:12;101243.88;;;5.23;100.00
64933;BME280;51446;53.850;10.662;2023-02-18T07:19:38;101232.56;;;5.22;100.00
64933;BME280;51446;53.850;10.662;2023-02-18T07:22:03;101227.66;;;5.29;100.00
64933;BME280;51446;53.850;10.662;2023-02-18T07:24:28;101222.25;;;5.44;100.00
64933;BME280;51446;53.850;10.662;2023-02-18T07:26:53;101213.31;;;5.38;100.00
64933;BME280;51446;53.850;10.662;2023-02-18T07:29:19;101211.03;;;5.25;100.00
64933;BME280;51446;53.850;10.662;2023-02-18T07:31:44;101214.78;;;5.32;100.00
64933;BME280;51446;53.850;10.662;2023-02-18T07:34:09;101214.28;;;5.21;100.00
64933;BME280;51446;53.850;10.662;2023-02-18T07:36:34;101210.00;;;5.21;100.00
64933;BME280;51446;53.850;10.662;2023-02-18T07:39:00;101216.41;;;5.30;100.00
64933;BME280;51446;53.850;10.662;2023-02-18T07:41:25;101220.06;;;5.33;100.00
64933;BME280;51446;53.850;10.662;2023-02-18T07:43:50;101218.47;;;5.37;100.00
64933;BME280;51446;53.850;10.662;2023-02-18T07:46:15;101218.41;;;5.35;100.00
64933;BME280;51446;53.850;10.662;2023-02-18T07:48:41;101210.13;;;5.25;100.00
64933;BME280;51446;53.850;10.662;2023-02-18T07:51:08;101212.00;;;5.27;100.00
64933;BME280;51446;53.850;10.662;2023-02-18T07:53:34;101214.03;;;5.34;100.00
64933;BME280;51446;53.850;10.662;2023-02-18T07:56:00;101210.66;;;5.37;100.00
64933;BME280;51446;53.850;10.662;2023-02-18T07:58:28;101195.69;;;5.31;100.00
64933;BME280;51446;53.850;10.662;2023-02-18T08:00:54;101191.19;;;5.27;100.00
64933;BME280;51446;53.850;10.662;2023-02-18T08:03:23;101188.91;;;5.15;100.00
64933;BME280;51446;53.850;10.662;2023-02-18T08:05:50;101174.91;;;5.12;100.00
64933;BME280;51446;53.850;10.662;2023-02-18T08:08:25;101168.06;;;5.14;100.00
64933;BME280;51446;53.850;10.662;2023-02-18T08:10:52;101170.59;;;5.12;100.00
64933;BME280;51446;53.850;10.662;2023-02-18T08:13:18;101159.31;;;5.12;100.00
64933;BME280;51446;53.850;10.662;2023-02-18T08:15:43;101160.00;;;5.08;100.00
64933;BME280;51446;53.850;10.662;2023-02-18T08:18:18;101159.31;;;5.12;100.00
64933;BME280;51446;53.850;10.662;2023-02-18T08:20:45;101156.66;;;5.10;100.00
64933;BME280;51446;53.850;10.662;2023-02-18T08:23:11;101162.66;;;5.09;100.00
64933;BME280;51446;53.850;10.662;2023-02-18T08:25:36;101155.41;;;5.02;100.00
64933;BME280;51446;53.850;10.662;2023-02-18T08:28:02;101148.13;;;4.75;100.00
64933;BME280;51446;53.850;10.662;2023-02-18T08:30:27;101131.06;;;4.80;100.00
64933;BME280;51446;53.850;10.662;2023-02-18T08:32:52;101154.38;;;4.98;100.00
64933;BME280;51446;53.850;10.662;2023-02-18T08:35:18;101144.75;;;4.96;100.00
64933;BME280;51446;53.850;10.662;2023-02-18T08:37:43;101136.72;;;5.11;100.00
64933;BME280;51446;53.850;10.662;2023-02-18T08:40:11;101130.78;;;4.94;100.00
64933;BME280;51446;53.850;10.662;2023-02-18T08:42:36;101137.88;;;4.98;100.00
64933;BME280;51446;53.850;10.662;2023-02-18T08:45:02;101134.97;;;4.90;100.00
64933;BME280;51446;53.850;10.662;2023-02-18T08:47:27;101130.84;;;4.95;100.00
64933;BME280;51446;53.850;10.662;2023-02-18T08:49:53;101127.16;;;4.90;100.00
64933;BME280;51446;53.850;10.662;2023-02-18T08:52:18;101120.88;;;4.85;100.00
64933;BME280;51446;53.850;10.662;2023-02-18T08:54:44;101119.75;;;4.99;100.00
64933;BME280;51446;53.850;10.662;2023-02-18T08:57:09;101116.56;;;4.85;100.00
64933;BME280;51446;53.850;10.662;2023-02-18T08:59:34;101096.56;;;5.04;100.00
64933;BME280;51446;53.850;10.662;2023-02-18T09:02:00;101096.16;;;5.14;100.00
64933;BME280;51446;53.850;10.662;2023-02-18T09:04:25;101072.97;;;5.19;100.00
64933;BME280;51446;53.850;10.662;2023-02-18T09:06:50;101064.19;;;5.17;100.00
64933;BME280;51446;53.850;10.662;2023-02-18T09:09:16;101064.13;;;5.15;100.00
64933;BME280;51446;53.850;10.662;2023-02-18T09:11:42;101065.91;;;5.16;100.00
64933;BME280;51446;53.850;10.662;2023-02-18T09:14:08;101067.69;;;5.17;100.00
64933;BME280;51446;53.850;10.662;2023-02-18T09:16:33;101063.78;;;5.27;100.00
64933;BME280;51446;53.850;10.662;2023-02-18T09:18:59;101044.78;;;5.30;100.00
64933;BME280;51446;53.850;10.662;2023-02-18T09:21:25;101032.31;;;5.42;100.00
64933;BME280;51446;53.850;10.662;2023-02-18T09:23:50;101038.66;;;5.49;100.00
64933;BME280;51446;53.850;10.662;2023-02-18T09:26:18;101036.59;;;5.63;100.00
64933;BME280;51446;53.850;10.662;2023-02-18T09:28:45;101020.00;;;5.59;100.00
64933;BME280;51446;53.850;10.662;2023-02-18T09:31:14;101004.25;;;5.56;100.00
64933;BME280;51446;53.850;10.662;2023-02-18T09:33:43;100988.06;;;5.63;100.00
64933;BME280;51446;53.850;10.662;2023-02-18T09:36:09;101001.38;;;5.71;100.00
64933;BME280;51446;53.850;10.662;2023-02-18T09:38:34;101009.81;;;5.65;100.00
64933;BME280;51446;53.850;10.662;2023-02-18T09:41:02;101006.34;;;5.65;100.00
64933;BME280;51446;53.850;10.662;2023-02-18T09:43:32;101005.38;;;5.63;100.00
64933;BME280;51446;53.850;10.662;2023-02-18T09:45:59;100997.03;;;5.49;100.00
64933;BME280;51446;53.850;10.662;2023-02-18T09:48:29;100998.56;;;5.44;100.00
64933;BME280;51446;53.850;10.662;2023-02-18T09:50:56;100989.34;;;5.52;100.00
64933;BME280;51446;53.850;10.662;2023-02-18T09:53:22;100983.81;;;5.44;100.00
64933;BME280;51446;53.850;10.662;2023-02-18T09:55:49;100973.53;;;5.25;100.00
64933;BME280;51446;53.850;10.662;2023-02-18T09:58:22;100986.00;;;5.33;100.00
64933;BME280;51446;53.850;10.662;2023-02-18T10:00:52;100973.19;;;5.38;100.00
64933;BME280;51446;53.850;10.662;2023-02-18T10:03:24;100972.78;;;5.27;100.00
64933;BME280;51446;53.850;10.662;2023-02-18T10:06:09;100969.16;;;5.24;100.00
64933;BME280;51446;53.850;10.662;2023-02-18T10:08:45;100974.47;;;5.27;100.00
64933;BME280;51446;53.850;10.662;2023-02-18T10:13:48;100973.06;;;5.35;100.00
64933;BME280;51446;53.850;10.662;2023-02-18T10:16:17;100966.44;;;5.20;100.00
64933;BME280;51446;53.850;10.662;2023-02-18T10:18:45;100952.84;;;5.07;100.00
64933;BME280;51446;53.850;10.662;2023-02-18T10:21:34;100951.34;;;5.12;100.00
64933;BME280;51446;53.850;10.662;2023-02-18T10:24:04;100924.97;;;5.02;100.00
64933;BME280;51446;53.850;10.662;2023-02-18T10:26:32;100948.69;;;5.33;100.00
64933;BME280;51446;53.850;10.662;2023-02-18T10:28:59;100938.97;;;5.27;100.00
64933;BME280;51446;53.850;10.662;2023-02-18T10:31:33;100944.22;;;5.29;100.00
64933;BME280;51446;53.850;10.662;2023-02-18T10:34:08;100939.16;;;5.11;100.00
64933;BME280;51446;53.850;10.662;2023-02-18T10:36:46;100940.31;;;5.17;100.00
64933;BME280;51446;53.850;10.662;2023-02-18T10:42:07;100935.22;;;5.20;100.00
64933;BME280;51446;53.850;10.662;2023-02-18T10:47:22;100915.41;;;5.24;100.00
64933;BME280;51446;53.850;10.662;2023-02-18T10:50:08;100909.78;;;5.34;100.00
64933;BME280;51446;53.850;10.662;2023-02-18T10:52:41;100910.31;;;5.48;100.00
64933;BME280;51446;53.850;10.662;2023-02-18T10:55:12;100874.53;;;5.43;100.00
64933;BME280;51446;53.850;10.662;2023-02-18T10:57:51;100866.56;;;5.38;100.00
64933;BME280;51446;53.850;10.662;2023-02-18T11:00:25;100879.16;;;5.50;100.00
64933;BME280;51446;53.850;10.662;2023-02-18T11:03:14;100872.91;;;5.69;100.00
64933;BME280;51446;53.850;10.662;2023-02-18T11:05:40;100868.16;;;5.57;100.00
64933;BME280;51446;53.850;10.662;2023-02-18T11:08:09;100855.63;;;5.47;100.00
64933;BME280;51446;53.850;10.662;2023-02-18T11:10:39;100848.19;;;5.56;100.00
64933;BME280;51446;53.850;10.662;2023-02-18T11:13:07;100834.63;;;5.65;100.00
64933;BME280;51446;53.850;10.662;2023-02-18T11:15:34;100829.31;;;5.86;100.00
64933;BME280;51446;53.850;10.662;2023-02-18T11:21:01;100824.94;;;5.85;100.00
64933;BME280;51446;53.850;10.662;2023-02-18T11:23:27;100820.41;;;5.79;100.00
64933;BME280;51446;53.850;10.662;2023-02-18T11:26:01;100822.22;;;5.82;100.00
64933;BME280;51446;53.850;10.662;2023-02-18T11:28:45;100807.75;;;5.66;100.00
64933;BME280;51446;53.850;10.662;2023-02-18T11:31:18;100817.75;;;5.53;100.00
64933;BME280;51446;53.850;10.662;2023-02-18T11:33:51;100804.22;;;5.64;100.00
64933;BME280;51446;53.850;10.662;2023-02-18T11:41:19;100799.09;;;5.65;100.00
64933;BME280;51446;53.850;10.662;2023-02-18T11:43:49;100789.44;;;5.38;100.00
64933;BME280;51446;53.850;10.662;2023-02-18T11:46:24;100813.75;;;5.39;100.00
64933;BME280;51446;53.850;10.662;2023-02-18T11:48:50;100793.00;;;5.41;100.00
64933;BME280;51446;53.850;10.662;2023-02-18T11:51:17;100769.91;;;5.50;100.00
64933;BME280;51446;53.850;10.662;2023-02-18T11:54:25;100776.44;;;5.38;100.00
64933;BME280;51446;53.850;10.662;2023-02-18T11:56:59;100800.47;;;5.33;100.00
64933;BME280;51446;53.850;10.662;2023-02-18T11:59:26;100778.41;;;5.46;100.00
64933;BME280;51446;53.850;10.662;2023-02-18T12:01:57;100760.00;;;5.39;100.00
64933;BME280;51446;53.850;10.662;2023-02-18T12:04:32;100809.41;;;5.39;100.00
64933;BME280;51446;53.850;10.662;2023-02-18T12:07:19;100806.44;;;5.29;100.00
64933;BME280;51446;53.850;10.662;2023-02-18T12:09:54;100803.78;;;5.27;100.00
64933;BME280;51446;53.850;10.662;2023-02-18T12:12:27;100806.81;;;5.17;100.00
64933;BME280;51446;53.850;10.662;2023-02-18T12:14:54;100799.34;;;5.25;100.00
64933;BME280;51446;53.850;10.662;2023-02-18T12:17:42;100804.75;;;5.08;100.00
64933;BME280;51446;53.850;10.662;2023-02-18T12:20:35;100808.22;;;5.07;100.00
64933;BME280;51446;53.850;10.662;2023-02-18T12:23:35;100806.97;;;4.97;100.00
64933;BME280;51446;53.850;10.662;2023-02-18T12:31:33;100825.88;;;4.72;100.00
64933;BME280;51446;53.850;10.662;2023-02-18T12:40:14;100863.09;;;4.71;100.00
64933;BME280;51446;53.850;10.662;2023-02-18T12:43:05;100855.09;;;4.45;100.00
64933;BME280;51446;53.850;10.662;2023-02-18T12:56:56;100843.75;;;4.85;100.00
64933;BME280;51446;53.850;10.662;2023-02-18T13:02:07;100842.84;;;4.85;100.00
64933;BME280;51446;53.850;10.662;2023-02-18T13:04:57;100841.97;;;4.63;100.00
64933;BME280;51446;53.850;10.662;2023-02-18T13:07:49;100857.28;;;4.36;100.00
64933;BME280;51446;53.850;10.662;2023-02-18T13:13:18;100855.16;;;4.47;100.00
64933;BME280;51446;53.850;10.662;2023-02-18T13:18:26;100871.13;;;4.35;100.00
64933;BME280;51446;53.850;10.662;2023-02-18T13:20:58;100877.25;;;4.17;100.00
64933;BME280;51446;53.850;10.662;2023-02-18T13:23:29;100881.50;;;4.15;100.00
64933;BME280;51446;53.850;10.662;2023-02-18T13:25:59;100882.63;;;4.21;100.00
64933;BME280;51446;53.850;10.662;2023-02-18T13:31:24;100908.28;;;4.34;100.00
64933;BME280;51446;53.850;10.662;2023-02-18T13:34:09;100914.22;;;3.92;100.00
64933;BME280;51446;53.850;10.662;2023-02-18T13:36:56;100908.41;;;3.78;100.00
64933;BME280;51446;53.850;10.662;2023-02-18T13:39:25;100907.47;;;3.76;100.00
64933;BME280;51446;53.850;10.662;2023-02-18T13:42:10;100914.56;;;3.80;100.00
64933;BME280;51446;53.850;10.662;2023-02-18T13:45:01;100911.91;;;3.79;100.00
64933;BME280;51446;53.850;10.662;2023-02-18T13:47:36;100922.31;;;3.61;100.00
64933;BME280;51446;53.850;10.662;2023-02-18T13:50:30;100930.50;;;3.70;100.00
64933;BME280;51446;53.850;10.662;2023-02-18T13:55:39;100944.38;;;3.71;100.00
64933;BME280;51446;53.850;10.662;2023-02-18T13:58:14;100946.38;;;3.96;100.00
64933;BME280;51446;53.850;10.662;2023-02-18T14:00:46;100941.38;;;3.81;100.00
64933;BME280;51446;53.850;10.662;2023-02-18T14:06:17;100950.09;;;4.21;100.00
64933;BME280;51446;53.850;10.662;2023-02-18T14:08:43;100963.47;;;4.30;100.00
64933;BME280;51446;53.850;10.662;2023-02-18T14:16:24;100978.13;;;3.90;100.00